createdAt,value
2018-03-14T00:01:22.955Z,17.77
2018-03-14T00:03:50.366Z,18.48
2018-03-14T00:06:17.813Z,15.60
2018-03-14T00:08:45.230Z,14.52
2018-03-14T00:11:12.656Z,16.08
2018-03-14T00:13:40.083Z,14.25
2018-03-14T00:16:07.525Z,18.30
2018-03-14T00:18:34.956Z,19.25
2018-03-14T00:21:02.390Z,17.35
2018-03-14T00:23:29.836Z,16.40
2018-03-14T00:25:57.251Z,19.80
2018-03-14T00:28:24.762Z,24.67
2018-03-14T00:30:52.197Z,19.95
2018-03-14T00:33:19.636Z,22.50
2018-03-14T00:35:47.067Z,23.17
2018-03-14T00:38:14.498Z,20.15
2018-03-14T00:40:58.992Z,19.90
2018-03-14T00:43:26.436Z,22.13
2018-03-14T00:45:53.871Z,23.77
2018-03-14T00:48:21.304Z,22.45
2018-03-14T00:50:48.727Z,23.70
2018-03-14T00:53:16.165Z,24.80
2018-03-14T00:55:43.588Z,23.92
2018-03-14T00:58:11.075Z,23.85
2018-03-14T01:00:38.582Z,22.87
2018-03-14T01:03:06.046Z,23.90
2018-03-14T01:05:33.477Z,22.35
2018-03-14T01:08:00.931Z,25.12
2018-03-14T01:10:28.411Z,22.35
2018-03-14T01:12:55.860Z,23.65
2018-03-14T01:15:23.334Z,20.67
2018-03-14T01:18:07.353Z,19.85
2018-03-14T01:20:34.796Z,22.37
2018-03-14T01:23:02.223Z,23.65
2018-03-14T01:25:29.768Z,23.98
2018-03-14T01:27:57.518Z,21.12
2018-03-14T01:30:24.943Z,19.33
2018-03-14T01:32:52.380Z,22.20
2018-03-14T01:35:19.891Z,17.85
2018-03-14T01:37:47.331Z,20.98
2018-03-14T01:40:14.817Z,19.12
2018-03-14T01:42:42.258Z,18.20
2018-03-14T01:45:09.715Z,18.23
2018-03-14T01:47:37.276Z,16.42
2018-03-14T01:50:04.712Z,15.32
2018-03-14T01:52:32.146Z,17.73
2018-03-14T01:54:59.860Z,22.77
2018-03-14T01:57:27.312Z,15.50
2018-03-14T01:59:54.772Z,16.90
2018-03-14T02:02:22.203Z,16.60
2018-03-14T02:04:49.646Z,18.45
2018-03-14T02:07:17.071Z,17.40
2018-03-14T02:09:44.511Z,17.25
2018-03-14T02:12:11.983Z,17.75
2018-03-14T02:14:39.431Z,20.33
2018-03-14T02:17:07.076Z,21.45
2018-03-14T02:19:34.688Z,22.85
2018-03-14T02:22:02.184Z,19.05
2018-03-14T02:24:29.946Z,23.55
2018-03-14T02:27:00.829Z,19.98
2018-03-14T02:29:28.254Z,21.83
2018-03-14T02:31:55.955Z,20.88
2018-03-14T02:34:23.696Z,22.35
2018-03-14T02:37:01.852Z,20.40
2018-03-14T02:39:29.389Z,27.52
2018-03-14T02:41:56.845Z,24.40
2018-03-14T02:44:24.363Z,27.25
2018-03-14T02:46:51.847Z,22.77
2018-03-14T02:49:19.589Z,27.52
2018-03-14T02:51:47.043Z,27.10
2018-03-14T02:54:14.501Z,24.40
2018-03-14T02:56:41.927Z,26.70
2018-03-14T02:59:09.434Z,26.98
2018-03-14T03:01:36.988Z,26.30
2018-03-14T03:04:04.437Z,28.98
2018-03-14T03:06:31.898Z,25.00
2018-03-14T03:08:59.316Z,25.80
2018-03-14T03:11:26.751Z,27.85
2018-03-14T03:13:54.179Z,24.80
2018-03-14T03:16:21.919Z,23.15
2018-03-14T03:18:49.392Z,26.45
2018-03-14T03:21:16.849Z,23.90
2018-03-14T03:23:44.296Z,22.35
2018-03-14T03:26:11.770Z,25.17
2018-03-14T03:28:39.238Z,23.42
2018-03-14T03:31:06.700Z,25.17
2018-03-14T03:33:34.127Z,24.87
2018-03-14T03:36:01.567Z,25.75
2018-03-14T03:38:29.067Z,23.40
2018-03-14T03:40:56.803Z,26.58
2018-03-14T03:43:24.292Z,25.23
2018-03-14T03:45:51.834Z,21.90
2018-03-14T03:48:19.811Z,25.20
2018-03-14T03:50:47.297Z,29.05
2018-03-14T03:53:14.717Z,27.25
2018-03-14T03:55:45.060Z,22.70
2018-03-14T03:58:12.498Z,23.33
2018-03-14T04:00:40.214Z,29.30
2018-03-14T04:03:07.630Z,25.70
2018-03-14T04:05:35.083Z,32.33
2018-03-14T04:08:02.526Z,27.45
2018-03-14T04:10:29.939Z,24.55
2018-03-14T04:12:58.397Z,28.85
2018-03-14T04:15:25.896Z,28.52
2018-03-14T04:17:56.161Z,25.60
2018-03-14T04:20:23.582Z,21.95
2018-03-14T04:22:51.015Z,26.70
2018-03-14T04:25:18.447Z,22.10
2018-03-14T04:27:45.871Z,25.83
2018-03-14T04:30:13.343Z,24.10
2018-03-14T04:32:40.806Z,23.25
2018-03-14T04:35:08.263Z,23.40
2018-03-14T04:37:35.697Z,22.50
2018-03-14T04:40:03.115Z,22.00
2018-03-14T04:42:30.610Z,19.80
2018-03-14T04:44:58.023Z,24.48
2018-03-14T04:47:25.451Z,24.08
2018-03-14T04:49:52.862Z,19.02
2018-03-14T04:52:20.468Z,21.48
2018-03-14T04:54:47.930Z,23.75
2018-03-14T04:57:15.696Z,19.17
2018-03-14T04:59:43.427Z,21.73
2018-03-14T05:02:10.851Z,18.75
2018-03-14T05:04:38.267Z,18.12
2018-03-14T05:07:05.687Z,21.48
2018-03-14T05:09:33.105Z,24.63
2018-03-14T05:12:00.537Z,22.33
2018-03-14T05:14:27.993Z,18.73
2018-03-14T05:19:48.331Z,23.60
2018-03-14T05:22:15.774Z,28.38
2018-03-14T05:24:43.382Z,30.10
2018-03-14T05:27:10.799Z,41.05
2018-03-14T05:29:38.244Z,35.15
2018-03-14T05:32:08.017Z,22.65
2018-03-14T05:34:35.453Z,23.17
2018-03-14T05:37:03.355Z,26.33
2018-03-14T05:39:30.830Z,16.80
2018-03-14T05:41:58.249Z,24.25
2018-03-14T05:44:25.776Z,22.40
2018-03-14T05:46:54.654Z,23.35
2018-03-14T05:49:22.101Z,24.02
2018-03-14T05:51:49.544Z,19.85
2018-03-14T05:54:17.027Z,22.75
2018-03-14T05:56:44.679Z,22.05
2018-03-14T05:59:12.123Z,23.65
2018-03-14T06:01:39.533Z,24.70
2018-03-14T06:04:06.963Z,20.65
2018-03-14T06:06:34.402Z,24.65
2018-03-14T06:09:01.860Z,25.00
2018-03-14T06:11:29.282Z,29.58
2018-03-14T06:13:56.723Z,20.15
2018-03-14T06:16:24.224Z,22.20
2018-03-14T06:18:51.624Z,20.50
2018-03-14T06:21:19.975Z,26.95
2018-03-14T06:23:47.451Z,23.73
2018-03-14T06:26:14.893Z,25.48
2018-03-14T06:28:42.354Z,24.95
2018-03-14T06:31:09.811Z,25.92
2018-03-14T06:33:37.271Z,23.10
2018-03-14T06:36:07.449Z,26.42
2018-03-14T06:38:34.951Z,26.77
2018-03-14T06:41:02.412Z,24.15
2018-03-14T06:43:29.871Z,27.50
2018-03-14T06:45:59.480Z,24.20
2018-03-14T06:48:26.927Z,22.50
2018-03-14T06:50:54.386Z,21.85
2018-03-14T06:53:21.847Z,18.75
2018-03-14T06:55:49.309Z,20.60
2018-03-14T06:58:28.447Z,21.92
2018-03-14T07:01:07.454Z,20.95
2018-03-14T07:03:46.488Z,18.70
2018-03-14T07:06:15.240Z,18.65
2018-03-14T07:08:42.655Z,25.12
2018-03-14T07:11:10.097Z,16.73
2018-03-14T07:13:37.559Z,15.85
2018-03-14T07:16:05.013Z,17.25
2018-03-14T07:18:32.459Z,13.77
2018-03-14T07:20:59.923Z,16.37
2018-03-14T07:23:27.373Z,15.00
2018-03-14T07:25:54.831Z,13.70
2018-03-14T07:28:22.244Z,13.02
2018-03-14T07:30:49.677Z,14.18
2018-03-14T07:33:17.136Z,13.27
2018-03-14T07:35:44.593Z,16.50
2018-03-14T07:38:12.053Z,13.65
2018-03-14T07:40:39.515Z,10.23
2018-03-14T07:43:07.345Z,10.70
2018-03-14T07:45:34.800Z,11.65
2018-03-14T07:48:02.259Z,13.93
2018-03-14T07:50:29.716Z,9.48
2018-03-14T07:52:57.174Z,9.13
2018-03-14T07:55:24.631Z,12.27
2018-03-14T07:57:52.094Z,11.25
2018-03-14T08:00:19.558Z,7.43
2018-03-14T08:02:49.462Z,10.60
2018-03-14T08:05:16.919Z,8.13
2018-03-14T08:07:44.431Z,8.82
2018-03-14T08:10:11.840Z,8.73
2018-03-14T08:12:39.295Z,7.50
2018-03-14T08:15:10.441Z,7.40
2018-03-14T08:17:37.900Z,8.25
2018-03-14T08:20:05.353Z,6.85
2018-03-14T08:22:32.814Z,7.62
2018-03-14T08:25:00.335Z,7.12
2018-03-14T08:27:27.734Z,10.35
2018-03-14T08:29:55.197Z,6.35
2018-03-14T08:32:22.642Z,7.28
2018-03-14T08:34:50.178Z,9.48
2018-03-14T08:37:17.606Z,7.15
2018-03-14T08:39:45.036Z,7.35
2018-03-14T08:42:12.479Z,7.90
2018-03-14T08:44:39.932Z,6.03
2018-03-14T08:47:07.391Z,6.90
2018-03-14T08:49:34.847Z,8.23
2018-03-14T08:52:02.306Z,7.37
2018-03-14T08:54:29.727Z,7.07
2018-03-14T08:56:57.162Z,6.40
2018-03-14T08:59:24.608Z,8.85
2018-03-14T09:01:54.763Z,6.70
2018-03-14T09:04:22.271Z,7.35
2018-03-14T09:06:49.755Z,4.57
2018-03-14T09:09:18.201Z,5.60
2018-03-14T09:11:45.663Z,6.40
2018-03-14T09:14:13.111Z,8.45
2018-03-14T09:16:40.570Z,7.82
2018-03-14T09:19:08.029Z,4.15
2018-03-14T09:21:36.883Z,5.47
2018-03-14T09:24:04.384Z,5.37
2018-03-14T09:26:31.839Z,3.22
2018-03-14T09:28:59.306Z,4.85
2018-03-14T09:31:26.783Z,3.47
2018-03-14T09:33:57.934Z,4.57
2018-03-14T09:36:25.406Z,3.90
2018-03-14T09:38:52.850Z,4.45
2018-03-14T09:41:20.306Z,5.05
2018-03-14T09:43:47.765Z,4.50
2018-03-14T09:46:15.222Z,4.10
2018-03-14T09:48:42.681Z,4.65
2018-03-14T09:51:10.127Z,4.53
2018-03-14T09:53:37.587Z,4.30
2018-03-14T09:56:05.036Z,4.70
2018-03-14T09:58:32.510Z,4.07
2018-03-14T10:00:59.964Z,5.78
2018-03-14T10:03:27.488Z,4.65
2018-03-14T10:05:54.954Z,4.03
2018-03-14T10:08:22.404Z,4.60
2018-03-14T10:10:49.811Z,4.72
2018-03-14T10:13:17.239Z,5.05
2018-03-14T10:15:44.692Z,5.70
2018-03-14T10:18:12.191Z,4.65
2018-03-14T10:20:39.622Z,6.97
2018-03-14T10:23:08.669Z,5.07
2018-03-14T10:25:36.801Z,6.20
2018-03-14T10:28:04.217Z,6.62
2018-03-14T10:30:31.676Z,5.22
2018-03-14T10:32:59.104Z,6.18
2018-03-14T10:35:26.534Z,4.95
2018-03-14T10:37:53.965Z,6.22
2018-03-14T10:40:21.448Z,6.50
2018-03-14T10:42:52.695Z,5.78
2018-03-14T10:45:20.116Z,6.53
2018-03-14T10:47:47.567Z,9.02
2018-03-14T10:50:15.024Z,4.90
2018-03-14T10:52:42.485Z,7.32
2018-03-14T10:55:09.942Z,4.82
2018-03-14T10:57:37.400Z,5.95
2018-03-14T11:00:05.698Z,11.82
2018-03-14T11:02:33.247Z,5.70
2018-03-14T11:05:00.692Z,6.35
2018-03-14T11:07:28.096Z,8.25
2018-03-14T11:09:55.547Z,5.97
2018-03-14T11:12:23.002Z,6.57
2018-03-14T11:14:50.523Z,5.97
2018-03-14T11:17:17.986Z,6.68
2018-03-14T11:19:45.438Z,6.47
2018-03-14T11:22:12.899Z,6.97
2018-03-14T11:24:40.353Z,6.45
2018-03-14T11:27:07.816Z,5.82
2018-03-14T11:29:35.270Z,5.47
2018-03-14T11:32:02.740Z,8.95
2018-03-14T11:34:30.187Z,8.57
2018-03-14T11:36:57.644Z,8.02
2018-03-14T11:39:25.277Z,9.90
2018-03-14T11:41:53.174Z,6.07
2018-03-14T11:44:20.631Z,4.78
2018-03-14T11:46:48.089Z,5.43
2018-03-14T11:49:15.549Z,5.20
2018-03-14T11:51:43.005Z,5.85
2018-03-14T11:54:10.463Z,6.43
2018-03-14T11:56:37.920Z,6.60
2018-03-14T11:59:05.380Z,8.50
2018-03-14T12:01:32.837Z,7.80
2018-03-14T12:04:05.530Z,4.15
2018-03-14T12:06:33.005Z,4.37
2018-03-14T12:09:00.432Z,5.35
2018-03-14T12:11:31.598Z,4.20
2018-03-14T12:13:59.038Z,5.70
2018-03-14T12:16:26.492Z,4.70
2018-03-14T12:18:53.894Z,7.63
2018-03-14T12:21:21.331Z,5.17
2018-03-14T12:23:48.797Z,5.93
2018-03-14T12:26:16.334Z,8.13
2018-03-14T12:28:43.793Z,9.15
2018-03-14T12:31:11.243Z,5.70
2018-03-14T12:33:38.696Z,7.00
2018-03-14T12:36:06.156Z,5.57
2018-03-14T12:38:33.612Z,7.30
2018-03-14T12:41:01.083Z,7.78
2018-03-14T12:43:31.812Z,5.32
2018-03-14T12:45:59.296Z,6.47
2018-03-14T12:48:26.729Z,5.25
2018-03-14T12:50:54.203Z,5.45
2018-03-14T12:53:21.736Z,6.15
2018-03-14T12:55:52.269Z,7.18
2018-03-14T12:58:19.726Z,4.62
2018-03-14T13:00:47.182Z,5.22
2018-03-14T13:03:14.721Z,5.57
2018-03-14T13:05:42.120Z,6.80
2018-03-14T13:08:12.244Z,4.97
2018-03-14T13:10:39.778Z,5.05
2018-03-14T13:13:07.236Z,5.12
2018-03-14T13:15:34.694Z,4.40
2018-03-14T13:18:02.165Z,7.40
2018-03-14T13:20:29.612Z,4.53
2018-03-14T13:22:57.068Z,5.60
2018-03-14T13:25:24.527Z,4.60
2018-03-14T13:27:51.985Z,4.70
2018-03-14T13:30:19.444Z,4.70
2018-03-14T13:32:48.507Z,8.98
2018-03-14T13:35:16.816Z,6.00
2018-03-14T13:37:44.279Z,5.18
2018-03-14T13:40:11.737Z,5.93
2018-03-14T13:42:39.187Z,7.50
2018-03-14T13:45:06.647Z,8.13
2018-03-14T13:47:34.123Z,7.55
2018-03-14T13:50:01.564Z,8.88
2018-03-14T13:52:29.020Z,5.82
2018-03-14T13:54:58.842Z,5.15
2018-03-14T13:57:26.393Z,6.97
2018-03-14T13:59:53.849Z,6.07
2018-03-14T14:02:21.308Z,5.00
2018-03-14T14:04:48.783Z,6.80
2018-03-14T14:07:16.225Z,9.73
2018-03-14T14:09:43.698Z,7.07
2018-03-14T14:12:11.132Z,7.60
2018-03-14T14:14:38.598Z,10.93
2018-03-14T14:17:06.056Z,6.07
2018-03-14T14:19:33.820Z,7.97
2018-03-14T14:22:01.246Z,6.72
2018-03-14T14:24:28.741Z,7.60
2018-03-14T14:26:56.203Z,6.05
2018-03-14T14:29:23.684Z,9.15
2018-03-14T14:31:51.109Z,6.50
2018-03-14T14:34:18.567Z,5.47
2018-03-14T14:36:46.025Z,7.37
2018-03-14T14:39:13.483Z,6.22
2018-03-14T14:41:40.943Z,6.97
2018-03-14T14:44:08.414Z,7.15
2018-03-14T14:46:36.033Z,8.48
2018-03-14T14:49:03.623Z,6.78
2018-03-14T14:51:34.053Z,7.07
2018-03-14T14:54:01.583Z,6.72
2018-03-14T14:56:29.069Z,7.47
2018-03-14T14:58:56.524Z,7.32
2018-03-14T15:01:23.985Z,6.87
2018-03-14T15:03:52.671Z,8.45
2018-03-14T15:06:20.144Z,10.65
2018-03-14T15:08:48.070Z,6.70
2018-03-14T15:11:15.574Z,6.70
2018-03-14T15:13:46.801Z,5.70
2018-03-14T15:16:14.251Z,7.72
2018-03-14T15:18:41.716Z,6.60
2018-03-14T15:21:09.230Z,7.30
2018-03-14T15:23:36.644Z,6.82
2018-03-14T15:26:04.094Z,6.68
2018-03-14T15:28:31.553Z,6.00
2018-03-14T15:31:03.647Z,5.95
2018-03-14T15:33:31.388Z,8.48
2018-03-14T15:36:00.689Z,6.20
2018-03-14T15:38:30.786Z,7.10
2018-03-14T15:41:06.401Z,8.00
2018-03-14T15:43:33.824Z,7.93
2018-03-14T15:46:01.273Z,8.00
2018-03-14T15:48:29.067Z,8.85
2018-03-14T15:50:56.915Z,8.27
2018-03-14T15:53:25.004Z,7.32
2018-03-14T15:55:52.455Z,6.32
2018-03-14T15:58:20.151Z,7.70
2018-03-14T16:00:47.579Z,6.22
2018-03-14T16:03:15.128Z,10.10
2018-03-14T16:05:42.680Z,7.60
2018-03-14T16:08:10.102Z,6.32
2018-03-14T16:10:37.531Z,6.90
2018-03-14T16:13:04.987Z,7.45
2018-03-14T16:15:32.428Z,6.20
2018-03-14T16:17:59.871Z,7.18
2018-03-14T16:20:27.299Z,8.02
2018-03-14T16:22:54.883Z,11.07
2018-03-14T16:25:22.300Z,9.13
2018-03-14T16:27:49.732Z,7.12
2018-03-14T16:30:17.164Z,6.85
2018-03-14T16:32:44.599Z,7.25
2018-03-14T16:35:12.017Z,9.00
2018-03-14T16:37:39.436Z,7.07
2018-03-14T16:40:06.848Z,7.00
2018-03-14T16:42:34.291Z,7.40
2018-03-14T16:45:01.908Z,7.60
2018-03-14T16:47:29.356Z,6.95
2018-03-14T16:49:56.773Z,6.28
2018-03-14T16:52:24.206Z,7.10
2018-03-14T16:54:51.625Z,7.35
2018-03-14T16:57:19.058Z,8.27
2018-03-14T16:59:46.488Z,6.65
2018-03-14T17:02:13.903Z,8.15
2018-03-14T17:04:41.328Z,8.05
2018-03-14T17:07:14.749Z,8.85
2018-03-14T17:09:42.229Z,9.85
2018-03-14T17:12:09.658Z,8.00
2018-03-14T17:14:37.099Z,8.77
2018-03-14T17:17:04.505Z,8.43
2018-03-14T17:19:31.914Z,8.73
2018-03-14T17:22:02.723Z,7.55
2018-03-14T17:24:30.152Z,7.75
2018-03-14T17:26:57.687Z,6.90
2018-03-14T17:29:25.139Z,7.82
2018-03-14T17:31:52.539Z,7.18
2018-03-14T17:34:19.976Z,8.63
2018-03-14T17:36:47.386Z,8.00
2018-03-14T17:39:14.844Z,11.93
2018-03-14T17:41:42.252Z,9.68
2018-03-14T17:44:09.693Z,9.52
2018-03-14T17:46:37.114Z,8.75
2018-03-14T17:49:04.557Z,9.35
2018-03-14T17:51:32.561Z,8.20
2018-03-14T17:53:59.989Z,10.38
2018-03-14T17:56:27.412Z,11.10
2018-03-14T17:58:54.848Z,13.02
2018-03-14T18:01:22.272Z,10.25
2018-03-14T18:03:49.695Z,9.38
2018-03-14T18:06:17.116Z,10.10
2018-03-14T18:08:44.570Z,10.25
2018-03-14T18:11:11.990Z,8.40
2018-03-14T18:13:39.404Z,7.53
2018-03-14T18:16:06.865Z,9.82
2018-03-14T18:18:34.307Z,7.35
2018-03-14T18:21:02.869Z,7.28
2018-03-14T18:23:30.457Z,8.90
2018-03-14T18:25:57.887Z,9.38
2018-03-14T18:28:25.516Z,8.25
2018-03-14T18:30:52.937Z,7.15
2018-03-14T18:33:20.384Z,8.23
2018-03-14T18:35:47.839Z,10.35
2018-03-14T18:38:15.260Z,9.13
2018-03-14T18:40:42.679Z,9.95
2018-03-14T18:43:10.179Z,10.38
2018-03-14T18:45:37.606Z,11.12
2018-03-14T18:48:05.088Z,11.60
2018-03-14T18:50:32.499Z,12.70
2018-03-14T18:52:59.961Z,15.90
2018-03-14T18:55:27.395Z,13.77
2018-03-14T18:57:54.831Z,10.90
2018-03-14T19:00:22.298Z,11.77
2018-03-14T19:02:49.705Z,12.40
2018-03-14T19:05:17.221Z,12.10
2018-03-14T19:07:44.641Z,11.68
2018-03-14T19:10:12.063Z,11.80
2018-03-14T19:12:39.475Z,12.55
2018-03-14T19:15:06.894Z,13.52
2018-03-14T19:17:34.305Z,11.60
2018-03-14T19:20:01.719Z,10.32
2018-03-14T19:22:29.464Z,9.50
2018-03-14T19:24:56.883Z,16.73
2018-03-14T19:27:24.311Z,10.27
2018-03-14T19:29:51.817Z,11.20
2018-03-14T19:32:19.270Z,10.25
2018-03-14T19:34:46.680Z,15.07
2018-03-14T19:37:14.192Z,16.73
2018-03-14T19:39:41.687Z,10.45
2018-03-14T19:42:09.120Z,10.75
2018-03-14T19:44:36.556Z,12.07
2018-03-14T19:47:03.984Z,11.02
2018-03-14T19:49:31.407Z,11.45
2018-03-14T19:51:58.945Z,10.93
2018-03-14T19:54:26.374Z,14.50
2018-03-14T19:56:53.827Z,12.60
2018-03-14T19:59:21.264Z,12.40
2018-03-14T20:01:48.690Z,14.00
2018-03-14T20:04:16.133Z,10.55
2018-03-14T20:06:43.570Z,12.07
2018-03-14T20:09:10.993Z,11.38
2018-03-14T20:11:38.415Z,12.30
2018-03-14T20:14:05.834Z,14.57
2018-03-14T20:16:33.262Z,16.35
2018-03-14T20:19:00.696Z,15.15
2018-03-14T20:21:28.135Z,11.85
2018-03-14T20:23:55.949Z,13.52
2018-03-14T20:26:23.385Z,13.15
2018-03-14T20:28:50.802Z,15.25
2018-03-14T20:31:20.213Z,10.35
2018-03-14T20:33:47.835Z,12.57
2018-03-14T20:36:15.283Z,11.32
2018-03-14T20:38:42.754Z,11.25
2018-03-14T20:41:10.185Z,15.55
2018-03-14T20:43:37.658Z,14.32
2018-03-14T20:46:05.099Z,14.38
2018-03-14T20:48:32.567Z,13.30
2018-03-14T20:51:00.055Z,14.90
2018-03-14T20:53:27.532Z,13.85
2018-03-14T20:55:54.988Z,12.88
2018-03-14T20:58:22.468Z,12.82
2018-03-14T21:00:50.212Z,12.10
2018-03-14T21:03:17.700Z,16.50
2018-03-14T21:05:45.132Z,15.38
2018-03-14T21:08:37.694Z,13.20
2018-03-14T21:11:05.216Z,13.48
2018-03-14T21:13:32.696Z,14.87
2018-03-14T21:16:01.711Z,14.55
2018-03-14T21:18:29.158Z,12.82
2018-03-14T21:21:16.778Z,13.98
2018-03-14T21:23:44.197Z,15.85
2018-03-14T21:26:11.620Z,12.27
2018-03-14T21:28:39.055Z,15.30
2018-03-14T21:31:06.575Z,16.20
2018-03-14T21:33:33.915Z,16.12
2018-03-14T21:36:01.348Z,15.60
2018-03-14T21:38:28.787Z,16.85
2018-03-14T21:40:58.113Z,18.35
2018-03-14T21:43:25.526Z,17.45
2018-03-14T21:45:52.950Z,21.27
2018-03-14T21:48:20.358Z,18.27
2018-03-14T21:50:47.776Z,18.23
2018-03-14T21:53:15.190Z,18.23
2018-03-14T21:55:42.607Z,23.42
2018-03-14T21:58:10.019Z,18.40
2018-03-14T22:02:40.479Z,21.95
2018-03-14T22:05:07.889Z,17.45
2018-03-14T22:07:35.303Z,18.23
2018-03-14T22:10:02.714Z,18.90
2018-03-14T22:12:30.125Z,16.40
2018-03-14T22:14:57.544Z,20.50
2018-03-14T22:17:24.959Z,18.85
2018-03-14T22:19:52.388Z,18.60
2018-03-14T22:22:19.778Z,21.37
2018-03-14T22:24:47.197Z,15.85
2018-03-14T22:27:14.674Z,19.12
2018-03-14T22:29:42.123Z,17.85
2018-03-14T22:32:09.525Z,23.67
2018-03-14T22:34:36.942Z,12.63
2018-03-14T22:37:04.395Z,19.27
2018-03-14T22:39:31.772Z,19.27
2018-03-14T22:41:59.183Z,17.98
2018-03-14T22:44:26.593Z,17.60
2018-03-14T22:46:53.997Z,18.05
2018-03-14T22:49:21.417Z,21.17
2018-03-14T22:51:48.826Z,21.17
2018-03-14T22:54:16.248Z,21.37
2018-03-14T22:56:43.650Z,16.90
2018-03-14T22:59:11.049Z,17.90
2018-03-14T23:01:38.470Z,17.70
2018-03-14T23:04:05.874Z,16.95
2018-03-14T23:06:33.287Z,20.25
2018-03-14T23:09:01.183Z,19.20
2018-03-14T23:11:28.595Z,21.77
2018-03-14T23:13:55.999Z,16.77
2018-03-14T23:16:23.411Z,16.45
2018-03-14T23:18:50.822Z,20.27
2018-03-14T23:21:18.242Z,16.67
2018-03-14T23:23:45.686Z,24.17
2018-03-14T23:26:13.094Z,22.05
2018-03-14T23:28:40.502Z,19.83
2018-03-14T23:31:07.928Z,20.90
2018-03-14T23:33:35.371Z,17.73
2018-03-14T23:36:02.782Z,24.55
2018-03-14T23:38:30.199Z,23.45
2018-03-14T23:40:57.610Z,19.98
2018-03-14T23:43:25.014Z,19.80
2018-03-14T23:45:52.429Z,21.37
2018-03-14T23:48:19.842Z,16.73
2018-03-14T23:50:47.266Z,18.33
2018-03-14T23:53:14.670Z,22.98
2018-03-14T23:55:42.094Z,20.58
2018-03-14T23:58:09.505Z,22.55
